createdAt,value
2022-09-24T00:01:41.582Z,7.38
2022-09-24T00:04:12.124Z,7.30
2022-09-24T00:06:44.447Z,7.24
2022-09-24T00:09:14.278Z,7.32
2022-09-24T00:11:43.625Z,7.39
2022-09-24T00:14:11.517Z,7.35
2022-09-24T00:16:41.693Z,7.24
2022-09-24T00:19:10.352Z,7.24
2022-09-24T00:21:39.572Z,6.96
2022-09-24T00:24:11.414Z,6.89
2022-09-24T00:26:50.087Z,7.10
2022-09-24T00:29:19.952Z,7.21
2022-09-24T00:31:48.182Z,7.21
2022-09-24T00:34:16.308Z,7.17
2022-09-24T00:36:44.777Z,7.14
2022-09-24T00:39:14.378Z,7.02
2022-09-24T00:41:44.928Z,6.99
2022-09-24T00:44:50.818Z,6.90
2022-09-24T00:47:32.018Z,6.77
2022-09-24T00:50:07.981Z,6.69
2022-09-24T00:52:39.696Z,6.73
2022-09-24T00:55:10.710Z,6.41
2022-09-24T00:57:39.802Z,6.83
2022-09-24T01:00:08.859Z,6.85
2022-09-24T01:02:39.404Z,6.77
2022-09-24T01:05:08.392Z,6.62
2022-09-24T01:07:36.588Z,6.47
2022-09-24T01:10:05.519Z,6.38
2022-09-24T01:12:45.242Z,5.69
2022-09-24T01:15:22.871Z,6.24
2022-09-24T01:17:57.136Z,6.06
2022-09-24T01:20:48.336Z,5.93
2022-09-24T01:23:48.774Z,5.95
2022-09-24T01:26:32.345Z,5.84
2022-09-24T01:29:20.477Z,5.89
2022-09-24T01:31:54.616Z,5.64
2022-09-24T01:34:27.880Z,5.37
2022-09-24T01:36:58.181Z,5.80
2022-09-24T01:39:27.088Z,5.81
2022-09-24T01:41:57.295Z,5.80
2022-09-24T01:44:27.067Z,5.80
2022-09-24T01:46:55.950Z,5.84
2022-09-24T01:49:23.962Z,5.79
2022-09-24T01:51:55.871Z,5.74
2022-09-24T01:54:28.930Z,5.79
2022-09-24T01:57:03.650Z,5.71
2022-09-24T01:59:38.153Z,5.71
2022-09-24T02:02:09.459Z,5.78
2022-09-24T02:04:43.653Z,5.79
2022-09-24T02:07:16.442Z,5.37
2022-09-24T02:09:45.392Z,5.70
2022-09-24T02:12:18.927Z,5.71
2022-09-24T02:14:52.476Z,5.67
2022-09-24T02:17:20.618Z,5.63
2022-09-24T02:19:51.109Z,5.62
2022-09-24T02:22:18.997Z,5.56
2022-09-24T02:24:49.539Z,5.50
2022-09-24T02:27:17.815Z,5.51
2022-09-24T02:29:46.289Z,5.29
2022-09-24T02:32:18.896Z,5.44
2022-09-24T02:34:55.484Z,5.28
2022-09-24T02:37:25.334Z,5.29
2022-09-24T02:39:53.274Z,5.39
2022-09-24T02:42:22.262Z,5.34
2022-09-24T02:44:50.253Z,5.33
2022-09-24T02:47:19.557Z,5.36
2022-09-24T02:49:47.393Z,5.22
2022-09-24T02:52:15.223Z,5.26
2022-09-24T02:54:43.306Z,5.28
2022-09-24T02:57:11.147Z,5.22
2022-09-24T02:59:38.983Z,5.13
2022-09-24T03:02:07.176Z,5.21
2022-09-24T03:04:36.565Z,5.16
2022-09-24T03:07:04.377Z,5.12
2022-09-24T03:09:32.363Z,5.06
2022-09-24T03:12:00.955Z,5.01
2022-09-24T03:14:29.112Z,5.06
2022-09-24T03:16:56.956Z,5.04
2022-09-24T03:19:24.765Z,5.04
2022-09-24T03:21:53.967Z,5.05
2022-09-24T03:24:21.975Z,5.04
2022-09-24T03:26:49.777Z,5.02
2022-09-24T03:29:37.593Z,5.00
2022-09-24T03:32:04.501Z,4.97
2022-09-24T03:34:32.302Z,5.08
2022-09-24T03:37:01.551Z,4.98
2022-09-24T03:39:29.402Z,4.88
2022-09-24T03:41:57.221Z,4.91
2022-09-24T03:44:25.821Z,4.87
2022-09-24T03:46:53.749Z,4.80
2022-09-24T03:49:23.448Z,4.77
2022-09-24T03:51:51.380Z,4.68
2022-09-24T03:54:20.754Z,4.26
2022-09-24T03:56:48.583Z,4.71
2022-09-24T03:59:16.417Z,4.73
2022-09-24T04:01:44.265Z,4.74
2022-09-24T04:04:15.360Z,4.86
2022-09-24T04:06:43.169Z,4.95
2022-09-24T04:09:11.286Z,4.99
2022-09-24T04:11:40.463Z,4.66
2022-09-24T04:14:08.491Z,5.00
2022-09-24T04:16:36.614Z,5.01
2022-09-24T04:19:04.552Z,4.89
2022-09-24T04:21:32.384Z,4.86
2022-09-24T04:24:00.258Z,4.94
2022-09-24T04:26:28.052Z,5.21
2022-09-24T04:28:59.298Z,5.36
2022-09-24T04:31:27.658Z,5.33
2022-09-24T04:33:55.847Z,5.63
2022-09-24T04:36:23.715Z,6.14
2022-09-24T04:38:51.553Z,6.34
2022-09-24T04:41:19.475Z,6.48
2022-09-24T04:43:47.406Z,6.72
2022-09-24T04:46:19.238Z,7.00
2022-09-24T04:48:47.188Z,7.26
2022-09-24T04:51:15.751Z,7.33
2022-09-24T04:53:43.563Z,7.46
2022-09-24T04:56:12.156Z,7.68
2022-09-24T04:58:40.576Z,7.73
2022-09-24T05:01:08.468Z,8.13
2022-09-24T05:03:37.695Z,7.30
2022-09-24T05:06:07.016Z,8.71
2022-09-24T05:08:34.868Z,9.26
2022-09-24T05:11:03.105Z,9.48
2022-09-24T05:13:30.935Z,9.53
2022-09-24T05:16:01.050Z,9.49
2022-09-24T05:18:29.276Z,9.66
2022-09-24T05:20:58.463Z,10.13
2022-09-24T05:23:26.295Z,10.03
2022-09-24T05:26:11.568Z,10.12
2022-09-24T05:28:40.553Z,9.85
2022-09-24T05:31:09.208Z,10.04
2022-09-24T05:33:37.642Z,10.56
2022-09-24T05:36:07.365Z,10.63
2022-09-24T05:38:35.192Z,11.21
2022-09-24T05:41:03.761Z,11.48
2022-09-24T05:43:31.916Z,11.38
2022-09-24T05:45:59.950Z,11.35
2022-09-24T05:48:28.287Z,11.19
2022-09-24T05:50:56.502Z,11.26
2022-09-24T05:53:25.816Z,11.60
2022-09-24T05:55:53.749Z,11.33
2022-09-24T05:58:21.579Z,11.66
2022-09-24T06:00:49.912Z,12.38
2022-09-24T06:03:19.110Z,12.39
2022-09-24T06:05:48.596Z,12.64
2022-09-24T06:08:17.056Z,12.48
2022-09-24T06:10:47.400Z,12.65
2022-09-24T06:13:17.692Z,12.73
2022-09-24T06:15:46.309Z,12.77
2022-09-24T06:18:14.327Z,12.48
2022-09-24T06:20:42.136Z,12.71
2022-09-24T06:23:10.017Z,12.75
2022-09-24T06:25:37.855Z,12.66
2022-09-24T06:28:07.057Z,12.81
2022-09-24T06:30:38.095Z,12.91
2022-09-24T06:33:08.504Z,13.23
2022-09-24T06:35:36.986Z,12.96
2022-09-24T06:38:05.062Z,12.95
2022-09-24T06:40:36.915Z,12.86
2022-09-24T06:43:07.111Z,13.09
2022-09-24T06:45:35.469Z,13.46
2022-09-24T06:48:05.594Z,13.12
2022-09-24T06:50:35.433Z,12.91
2022-09-24T06:53:06.512Z,13.53
2022-09-24T06:55:35.152Z,13.97
2022-09-24T06:58:06.744Z,14.57
2022-09-24T07:00:35.412Z,15.18
2022-09-24T07:03:03.360Z,14.62
2022-09-24T07:05:31.437Z,13.71
2022-09-24T07:07:59.255Z,13.86
2022-09-24T07:10:28.018Z,13.95
2022-09-24T07:12:56.159Z,14.21
2022-09-24T07:15:25.367Z,14.43
2022-09-24T07:17:56.633Z,14.33
2022-09-24T07:20:24.862Z,14.53
2022-09-24T07:22:52.682Z,15.21
2022-09-24T07:25:20.551Z,15.42
2022-09-24T07:27:48.506Z,14.96
2022-09-24T07:30:16.831Z,15.30
2022-09-24T07:32:46.036Z,14.78
2022-09-24T07:35:13.852Z,15.14
2022-09-24T07:37:41.656Z,15.77
2022-09-24T07:40:10.275Z,15.71
2022-09-24T07:42:39.129Z,15.25
2022-09-24T07:45:07.688Z,15.29
2022-09-24T07:47:35.511Z,15.36
2022-09-24T07:50:05.222Z,15.51
2022-09-24T07:52:33.028Z,16.16
2022-09-24T07:55:00.926Z,16.24
2022-09-24T07:57:28.844Z,16.26
2022-09-24T07:59:56.696Z,16.51
2022-09-24T08:02:25.065Z,16.86
2022-09-24T08:04:52.876Z,17.10
2022-09-24T08:07:22.080Z,17.00
2022-09-24T08:09:49.900Z,17.21
2022-09-24T08:12:17.719Z,17.45
2022-09-24T08:14:45.548Z,17.84
2022-09-24T08:17:13.606Z,17.61
2022-09-24T08:19:43.297Z,17.91
2022-09-24T08:22:11.177Z,17.49
2022-09-24T08:24:40.352Z,16.78
2022-09-24T08:27:08.174Z,16.88
2022-09-24T08:29:36.219Z,16.82
2022-09-24T08:32:04.249Z,16.84
2022-09-24T08:34:38.262Z,17.32
2022-09-24T08:37:06.213Z,17.94
2022-09-24T08:39:34.236Z,17.93
2022-09-24T08:42:06.603Z,18.04
2022-09-24T08:44:57.144Z,17.48
2022-09-24T08:47:36.015Z,17.54
2022-09-24T08:50:10.330Z,17.63
2022-09-24T08:52:51.201Z,17.98
2022-09-24T08:55:23.240Z,18.28
2022-09-24T08:57:59.955Z,19.04
2022-09-24T09:00:32.024Z,19.47
2022-09-24T09:03:06.407Z,19.55
2022-09-24T09:05:51.085Z,18.39
2022-09-24T09:11:22.948Z,19.51
2022-09-24T09:13:57.662Z,19.61
2022-09-24T09:16:29.092Z,19.77
2022-09-24T09:19:04.860Z,19.67
2022-09-24T09:21:38.563Z,19.97
2022-09-24T09:24:13.922Z,20.24
2022-09-24T09:26:42.373Z,20.10
2022-09-24T09:29:11.842Z,20.29
2022-09-24T09:31:56.126Z,20.85
2022-09-24T09:34:50.704Z,20.82
2022-09-24T09:37:27.125Z,20.92
2022-09-24T09:40:05.189Z,21.25
2022-09-24T09:42:36.341Z,21.11
2022-09-24T09:45:24.213Z,20.73
2022-09-24T09:47:58.093Z,20.10
2022-09-24T09:50:29.077Z,20.09
2022-09-24T09:52:57.445Z,20.60
2022-09-24T09:55:28.691Z,21.00
2022-09-24T09:58:10.718Z,21.01
2022-09-24T10:00:40.010Z,21.12
2022-09-24T10:03:08.292Z,21.85
2022-09-24T10:05:36.391Z,21.20
2022-09-24T10:08:04.268Z,21.17
2022-09-24T10:10:32.132Z,21.94
2022-09-24T10:13:10.209Z,21.56
2022-09-24T10:15:51.112Z,21.39
2022-09-24T10:18:28.402Z,22.16
2022-09-24T10:20:57.932Z,22.56
2022-09-24T10:23:33.236Z,22.74
2022-09-24T10:26:03.040Z,22.48
2022-09-24T10:28:49.855Z,22.34
2022-09-24T10:31:23.017Z,22.82
2022-09-24T10:33:53.384Z,23.16
2022-09-24T10:36:23.016Z,23.26
2022-09-24T10:38:51.153Z,23.21
2022-09-24T10:41:27.978Z,23.17
2022-09-24T10:43:57.536Z,23.07
2022-09-24T10:46:45.846Z,23.18
2022-09-24T10:49:23.659Z,23.30
2022-09-24T10:51:59.881Z,23.41
2022-09-24T10:54:48.161Z,23.24
2022-09-24T10:57:26.406Z,24.30
2022-09-24T11:00:03.043Z,23.70
2022-09-24T11:02:54.061Z,23.98
2022-09-24T11:05:23.826Z,23.89
2022-09-24T11:08:02.920Z,23.18
2022-09-24T11:10:51.384Z,23.52
2022-09-24T11:13:28.235Z,23.81
2022-09-24T11:16:18.355Z,23.93
2022-09-24T11:18:57.669Z,24.36
2022-09-24T11:21:40.197Z,23.72
2022-09-24T11:24:32.897Z,23.77
2022-09-24T11:27:16.561Z,24.52
2022-09-24T11:29:57.826Z,25.12
2022-09-24T11:32:33.173Z,24.61
2022-09-24T11:35:17.953Z,24.15
2022-09-24T11:37:58.528Z,24.50
2022-09-24T11:40:39.741Z,24.45
2022-09-24T11:43:25.611Z,23.91
2022-09-24T11:46:07.175Z,24.06
2022-09-24T11:48:51.068Z,24.27
2022-09-24T11:51:30.860Z,24.67
2022-09-24T11:54:04.391Z,25.02
2022-09-24T11:56:35.049Z,25.25
2022-09-24T11:59:17.763Z,25.51
2022-09-24T12:01:49.613Z,25.40
2022-09-24T12:04:22.844Z,24.65
2022-09-24T12:06:59.023Z,25.29
2022-09-24T12:09:32.972Z,25.57
2022-09-24T12:12:07.915Z,25.73
2022-09-24T12:14:46.094Z,25.30
2022-09-24T12:17:21.590Z,24.86
2022-09-24T12:19:54.420Z,24.65
2022-09-24T12:22:25.793Z,24.49
2022-09-24T12:24:58.559Z,24.43
2022-09-24T12:27:34.230Z,23.70
2022-09-24T12:30:49.536Z,23.26
2022-09-24T12:33:24.103Z,23.02
2022-09-24T12:36:05.822Z,22.66
2022-09-24T12:38:38.221Z,23.55
2022-09-24T12:41:24.809Z,22.97
2022-09-24T12:43:59.142Z,23.91
2022-09-24T12:46:30.696Z,23.99
2022-09-24T12:48:58.703Z,24.00
2022-09-24T12:51:36.688Z,23.26
2022-09-24T12:54:21.747Z,23.56
2022-09-24T12:56:49.648Z,23.75
2022-09-24T12:59:28.393Z,22.77
2022-09-24T13:02:07.542Z,22.42
2022-09-24T13:04:36.192Z,22.09
2022-09-24T13:07:04.085Z,22.17
2022-09-24T13:09:38.836Z,21.99
2022-09-24T13:12:21.404Z,21.76
2022-09-24T13:14:56.399Z,21.84
2022-09-24T13:17:25.458Z,21.97
2022-09-24T13:19:59.739Z,21.82
2022-09-24T13:22:30.765Z,21.57
2022-09-24T13:25:23.801Z,21.85
2022-09-24T13:28:02.236Z,21.94
2022-09-24T13:30:38.147Z,21.74
2022-09-24T13:33:19.185Z,21.75
2022-09-24T13:35:56.725Z,21.65
2022-09-24T13:38:30.013Z,21.75
2022-09-24T13:41:05.077Z,21.80
2022-09-24T13:43:44.995Z,21.72
2022-09-24T13:46:17.800Z,21.85
2022-09-24T13:48:52.574Z,21.79
2022-09-24T13:51:26.461Z,21.69
2022-09-24T13:54:00.814Z,21.57
2022-09-24T13:56:30.308Z,21.45
2022-09-24T13:59:07.021Z,21.40
2022-09-24T14:01:42.103Z,21.29
2022-09-24T14:04:18.132Z,21.20
2022-09-24T14:06:50.228Z,21.15
2022-09-24T14:09:27.351Z,21.08
2022-09-24T14:11:58.579Z,21.01
2022-09-24T14:14:28.776Z,21.01
2022-09-24T14:17:08.166Z,20.92
2022-09-24T14:19:36.240Z,21.00
2022-09-24T14:22:07.568Z,20.86
2022-09-24T14:24:37.155Z,20.83
2022-09-24T14:27:10.081Z,20.73
2022-09-24T14:29:48.356Z,20.45
2022-09-24T14:32:23.990Z,20.67
2022-09-24T14:34:54.923Z,20.72
2022-09-24T14:37:26.295Z,20.73
2022-09-24T14:40:00.815Z,20.62
2022-09-24T14:42:34.477Z,20.64
2022-09-24T14:45:04.641Z,20.60
2022-09-24T14:47:34.093Z,20.42
2022-09-24T14:50:04.092Z,20.51
2022-09-24T14:52:34.101Z,19.72
2022-09-24T14:55:18.622Z,20.53
2022-09-24T14:57:52.749Z,20.56
2022-09-24T15:00:25.800Z,20.56
2022-09-24T15:02:59.541Z,20.47
2022-09-24T15:05:29.284Z,20.36
2022-09-24T15:08:17.011Z,20.39
2022-09-24T15:10:53.088Z,20.40
2022-09-24T15:13:25.381Z,20.34
2022-09-24T15:16:19.272Z,20.17
2022-09-24T15:18:57.267Z,20.21
2022-09-24T15:21:25.125Z,20.16
2022-09-24T15:23:52.930Z,20.09
2022-09-24T15:26:21.363Z,20.08
2022-09-24T15:28:50.590Z,20.05
2022-09-24T15:31:18.528Z,20.06
2022-09-24T15:33:46.375Z,20.05
2022-09-24T15:36:15.115Z,20.11
2022-09-24T15:38:43.089Z,20.09
2022-09-24T15:41:10.916Z,20.06
2022-09-24T15:43:38.769Z,20.08
2022-09-24T15:46:08.216Z,20.08
2022-09-24T15:48:36.081Z,20.02
2022-09-24T15:51:10.102Z,19.96
2022-09-24T15:53:39.733Z,19.74
2022-09-24T15:56:08.141Z,19.59
2022-09-24T15:58:36.037Z,19.49
2022-09-24T16:01:04.248Z,19.40
2022-09-24T16:03:33.845Z,19.27
2022-09-24T16:06:02.633Z,19.08
2022-09-24T16:08:30.446Z,18.91
2022-09-24T16:10:58.272Z,18.74
2022-09-24T16:13:26.383Z,18.65
2022-09-24T16:15:54.346Z,18.47
2022-09-24T16:18:25.949Z,18.51
2022-09-24T16:20:55.219Z,18.37
2022-09-24T16:23:23.058Z,18.27
2022-09-24T16:25:58.176Z,18.19
2022-09-24T16:28:27.782Z,18.11
2022-09-24T16:30:55.728Z,18.02
2022-09-24T16:33:23.625Z,17.96
2022-09-24T16:35:51.481Z,17.89
2022-09-24T16:38:23.153Z,17.86
2022-09-24T16:40:52.091Z,17.77
2022-09-24T16:43:20.238Z,17.65
2022-09-24T16:45:48.051Z,17.57
2022-09-24T16:48:15.882Z,17.45
2022-09-24T16:50:43.728Z,16.78
2022-09-24T16:53:11.592Z,17.37
2022-09-24T16:55:40.797Z,17.27
2022-09-24T16:58:09.515Z,17.21
2022-09-24T17:00:37.795Z,16.96
2022-09-24T17:03:05.826Z,16.67
2022-09-24T17:05:40.644Z,16.67
2022-09-24T17:08:08.537Z,16.70
2022-09-24T17:10:35.358Z,15.64
2022-09-24T17:13:04.579Z,16.68
2022-09-24T17:15:32.472Z,16.59
2022-09-24T17:18:00.355Z,16.49
2022-09-24T17:20:28.245Z,16.50
2022-09-24T17:22:56.065Z,16.42
2022-09-24T17:25:24.038Z,16.34
2022-09-24T17:27:51.881Z,16.23
2022-09-24T17:30:21.515Z,16.14
2022-09-24T17:32:49.335Z,16.09
2022-09-24T17:35:17.330Z,15.98
2022-09-24T17:37:45.302Z,15.90
2022-09-24T17:40:13.244Z,15.91
2022-09-24T17:42:45.893Z,15.90
2022-09-24T17:45:13.803Z,15.82
2022-09-24T17:47:57.901Z,15.76
2022-09-24T17:50:25.892Z,15.70
2022-09-24T17:52:53.720Z,15.29
2022-09-24T17:55:21.566Z,15.65
2022-09-24T17:57:50.170Z,15.59
2022-09-24T18:00:55.212Z,15.51
2022-09-24T18:03:24.454Z,15.42
2022-09-24T18:05:52.303Z,15.34
2022-09-24T18:08:20.186Z,15.36
2022-09-24T18:10:48.035Z,14.37
2022-09-24T18:13:17.081Z,15.28
2022-09-24T18:15:45.916Z,15.24
2022-09-24T18:18:13.785Z,15.11
2022-09-24T18:20:43.021Z,15.00
2022-09-24T18:23:10.866Z,15.00
2022-09-24T18:25:38.776Z,14.93
2022-09-24T18:28:06.612Z,14.84
2022-09-24T18:30:34.503Z,14.74
2022-09-24T18:33:02.637Z,14.57
2022-09-24T18:35:30.609Z,14.62
2022-09-24T18:37:59.841Z,14.57
2022-09-24T18:40:28.132Z,13.43
2022-09-24T18:42:58.133Z,14.17
2022-09-24T18:45:26.019Z,14.06
2022-09-24T18:47:55.052Z,13.98
2022-09-24T18:50:22.917Z,13.94
2022-09-24T18:52:50.770Z,13.94
2022-09-24T18:55:20.170Z,13.86
2022-09-24T18:57:48.012Z,13.79
2022-09-24T19:00:29.983Z,13.71
2022-09-24T19:02:58.724Z,13.72
2022-09-24T19:05:26.712Z,13.65
2022-09-24T19:07:54.564Z,13.58
2022-09-24T19:10:23.791Z,13.50
2022-09-24T19:12:53.487Z,13.44
2022-09-24T19:15:21.330Z,13.30
2022-09-24T19:17:49.413Z,13.12
2022-09-24T19:20:17.481Z,13.05
2022-09-24T19:22:48.230Z,13.01
2022-09-24T19:25:16.456Z,12.09
2022-09-24T19:27:45.722Z,12.88
2022-09-24T19:30:13.892Z,12.80
2022-09-24T19:32:41.751Z,12.78
2022-09-24T19:35:10.083Z,12.70
2022-09-24T19:37:37.942Z,12.49
2022-09-24T19:40:06.568Z,12.42
2022-09-24T19:42:34.457Z,12.24
2022-09-24T19:45:04.672Z,12.31
2022-09-24T19:47:32.932Z,12.08
2022-09-24T19:50:00.801Z,12.32
2022-09-24T19:52:28.749Z,12.36
2022-09-24T19:54:56.593Z,12.33
2022-09-24T19:57:24.624Z,12.31
2022-09-24T19:59:52.448Z,11.93
2022-09-24T20:02:21.794Z,12.19
2022-09-24T20:04:49.753Z,12.14
2022-09-24T20:07:18.441Z,12.09
2022-09-24T20:09:46.326Z,12.09
2022-09-24T20:12:18.305Z,12.09
2022-09-24T20:14:46.647Z,12.15
2022-09-24T20:17:16.918Z,12.18
2022-09-24T20:19:46.128Z,12.17
2022-09-24T20:22:17.260Z,12.20
2022-09-24T20:24:45.413Z,12.13
2022-09-24T20:27:30.664Z,12.07
2022-09-24T20:29:58.522Z,11.99
2022-09-24T20:32:26.432Z,11.91
2022-09-24T20:34:55.697Z,11.84
2022-09-24T20:37:23.549Z,11.71
2022-09-24T20:39:51.409Z,11.75
2022-09-24T20:42:19.253Z,11.73
2022-09-24T20:44:48.951Z,11.73
2022-09-24T20:47:16.893Z,11.71
2022-09-24T20:49:44.744Z,11.64
2022-09-24T20:52:13.991Z,11.74
2022-09-24T20:54:41.836Z,11.78
2022-09-24T20:57:09.708Z,11.78
2022-09-24T20:59:37.560Z,11.72
2022-09-24T21:02:05.511Z,11.72
2022-09-24T21:04:35.236Z,11.76
2022-09-24T21:07:03.065Z,11.71
2022-09-24T21:09:32.643Z,11.69
2022-09-24T21:12:01.447Z,11.47
2022-09-24T21:14:29.291Z,11.40
2022-09-24T21:16:57.159Z,11.32
2022-09-24T21:19:25.821Z,11.36
2022-09-24T21:21:53.899Z,11.26
2022-09-24T21:24:25.120Z,11.30
2022-09-24T21:26:59.052Z,11.11
2022-09-24T21:29:26.937Z,10.83
2022-09-24T21:31:54.788Z,10.99
2022-09-24T21:34:23.057Z,10.63
2022-09-24T21:36:52.385Z,10.68
2022-09-24T21:39:23.051Z,10.59
2022-09-24T21:41:55.015Z,10.55
2022-09-24T21:44:24.249Z,10.40
2022-09-24T21:46:53.021Z,10.50
2022-09-24T21:49:22.821Z,10.17
2022-09-24T21:51:50.697Z,10.48
2022-09-24T21:54:19.450Z,10.43
2022-09-24T21:56:47.964Z,10.46
2022-09-24T21:59:34.090Z,10.40
2022-09-24T22:02:04.234Z,10.25
2022-09-24T22:04:33.311Z,10.31
2022-09-24T22:07:01.429Z,10.30
2022-09-24T22:09:29.704Z,10.25
2022-09-24T22:11:57.762Z,10.29
2022-09-24T22:14:25.600Z,10.36
2022-09-24T22:16:54.195Z,9.97
2022-09-24T22:19:23.672Z,10.18
2022-09-24T22:21:52.331Z,10.13
2022-09-24T22:24:20.553Z,10.05
2022-09-24T22:26:48.485Z,10.26
2022-09-24T22:29:16.366Z,10.17
2022-09-24T22:31:44.215Z,10.12
2022-09-24T22:34:29.894Z,10.09
2022-09-24T22:36:59.116Z,9.94
2022-09-24T22:39:27.106Z,9.88
2022-09-24T22:41:54.960Z,9.89
2022-09-24T22:44:22.911Z,9.92
2022-09-24T22:46:50.769Z,9.79
2022-09-24T22:49:19.685Z,9.69
2022-09-24T22:51:47.569Z,9.66
2022-09-24T22:54:16.787Z,9.71
2022-09-24T22:56:44.651Z,9.73
2022-09-24T22:59:12.532Z,9.76
2022-09-24T23:01:41.839Z,9.81
2022-09-24T23:04:13.303Z,9.70
2022-09-24T23:06:41.359Z,9.37
2022-09-24T23:09:09.472Z,9.76
2022-09-24T23:11:38.832Z,9.61
2022-09-24T23:14:12.379Z,9.57
2022-09-24T23:16:40.755Z,9.66
2022-09-24T23:19:12.925Z,9.59
2022-09-24T23:21:41.574Z,9.65
2022-09-24T23:24:14.199Z,9.66
2022-09-24T23:26:44.132Z,9.52
2022-09-24T23:29:13.058Z,9.58
2022-09-24T23:31:41.213Z,9.28
2022-09-24T23:34:12.921Z,9.48
2022-09-24T23:36:40.820Z,9.44
2022-09-24T23:39:08.646Z,9.50
2022-09-24T23:41:37.181Z,9.50
2022-09-24T23:44:06.811Z,9.39
2022-09-24T23:46:34.774Z,9.41
2022-09-24T23:49:02.942Z,9.39
2022-09-24T23:51:30.787Z,9.37
2022-09-24T23:53:58.624Z,9.17
2022-09-24T23:56:26.465Z,8.99
2022-09-24T23:58:55.034Z,9.16
